»·PEaware :: N564GT KAPA-KTEX

N564GT :: KAPA-KTEX

FLIGHT INFORMATION

Flight Status: Arrived
Operator: Privately registered:
United States
More flights under this callsign
Pilot: Jeremey H. (44477)
Aircraft: PIPER PA-24 COMMANCHE
(PA24)
More flights by this aircraft type
Origin: KAPA Centennial
United States
Destination: KTEX Telluride Regl
United States
More flights between these airports :: More routes between these airports
Route: MTJ ETL
File this flight plan on PilotEdge
Remarks:
Altitude:
(Current/Filed)
14,500ft
Speed:
(Current/Filed)
130kts
Departed: 26-Aug-23 01:10 PM
Arrived: 26-Aug-23 02:57 PM
Distance/Time
Traveled:
173nm/1:47
Distance/Time
To Go:
Arrived

Flight Plot

Page will automatically refresh every two minutes.

Flight plan parsing failed; only flown route is shown


Map Options




Map Legend


Flown Route
Filed Route
Departure Airport
Arrival Airport
Navaid (VOR, NDB)
Fix

Horizontal Profiles

Position Reports

Time Latitude Longitude Heading Altitude Ground
Speed
26-Aug-23 11:51 39.577447 -104.848112 87 5816ft 0kts
26-Aug-23 11:52 39.577447 -104.848112 87 5816ft 0kts
26-Aug-23 11:53 39.577447 -104.848112 87 5816ft 0kts
26-Aug-23 11:53 39.577447 -104.848112 87 5816ft 0kts
26-Aug-23 11:55 39.577447 -104.848112 87 5816ft 0kts
26-Aug-23 11:56 39.577447 -104.848112 87 5816ft 0kts
26-Aug-23 11:57 39.577447 -104.848112 87 5816ft 0kts
26-Aug-23 11:58 39.577447 -104.848112 87 5816ft 0kts
26-Aug-23 11:59 39.577447 -104.848112 87 5816ft 0kts
26-Aug-23 12:01 39.577447 -104.848112 87 5816ft 0kts
26-Aug-23 12:02 39.577447 -104.848112 0 5816ft 0kts
26-Aug-23 12:03 39.577447 -104.848112 87 5816ft 0kts
26-Aug-23 12:04 39.577447 -104.848112 87 5816ft 0kts
26-Aug-23 12:06 39.577447 -104.848112 87 5816ft 0kts
26-Aug-23 12:06 39.577447 -104.848112 87 5816ft 0kts
26-Aug-23 12:07 39.577447 -104.848112 87 5816ft 0kts
26-Aug-23 12:08 39.577447 -104.848112 87 5816ft 0kts
26-Aug-23 12:09 39.577447 -104.848112 87 5816ft 0kts
26-Aug-23 12:10 39.577447 -104.848112 87 5816ft 0kts
26-Aug-23 12:11 39.577447 -104.848112 87 5816ft 0kts
26-Aug-23 12:12 39.577447 -104.848112 87 5816ft 0kts
26-Aug-23 12:13 39.577447 -104.848112 87 5816ft 0kts
26-Aug-23 12:14 39.577447 -104.848112 87 5816ft 0kts
26-Aug-23 12:15 39.577447 -104.848112 87 5816ft 0kts
26-Aug-23 12:16 39.577447 -104.848112 87 5816ft 0kts
26-Aug-23 12:17 39.577447 -104.848112 87 5816ft 0kts
26-Aug-23 12:18 39.577447 -104.848112 87 5816ft 0kts
26-Aug-23 12:19 39.577447 -104.848112 87 5816ft 0kts
26-Aug-23 12:20 39.577447 -104.848112 87 5816ft 0kts
26-Aug-23 12:21 39.577447 -104.848112 87 5816ft 0kts
26-Aug-23 12:22 39.577447 -104.848112 87 5816ft 0kts
26-Aug-23 12:23 39.577447 -104.848112 87 5834ft 0kts
26-Aug-23 12:24 39.577447 -104.848112 87 5834ft 0kts
26-Aug-23 12:25 39.577447 -104.848112 87 5834ft 0kts
26-Aug-23 12:26 39.577447 -104.848112 87 5834ft 0kts
26-Aug-23 12:27 39.577447 -104.848112 87 5834ft 0kts
26-Aug-23 12:28 39.577447 -104.848112 87 5834ft 0kts
26-Aug-23 12:29 39.577447 -104.848112 87 5834ft 0kts
26-Aug-23 12:30 39.577447 -104.848112 87 5834ft 0kts
26-Aug-23 12:31 39.577447 -104.848112 87 5834ft 0kts
26-Aug-23 12:32 39.577447 -104.848112 87 5834ft 0kts
26-Aug-23 12:33 39.577447 -104.848112 87 5834ft 0kts
26-Aug-23 12:34 39.577447 -104.848112 87 5834ft 0kts
26-Aug-23 12:35 39.577447 -104.848112 87 5834ft 0kts
26-Aug-23 12:36 39.577447 -104.848112 87 5834ft 0kts
26-Aug-23 12:37 39.577447 -104.848112 87 5834ft 0kts
26-Aug-23 12:38 39.577447 -104.848112 87 5834ft 0kts
26-Aug-23 12:39 39.577447 -104.848112 87 5834ft 0kts
26-Aug-23 12:40 39.577447 -104.848112 87 5816ft 0kts
26-Aug-23 12:41 39.577447 -104.848112 87 5816ft 0kts
26-Aug-23 12:42 39.577447 -104.848112 87 5816ft 0kts
26-Aug-23 12:43 39.577447 -104.848112 87 5816ft 0kts
26-Aug-23 12:44 39.577447 -104.848112 87 5816ft 0kts
26-Aug-23 12:45 39.577447 -104.848112 87 5816ft 0kts
26-Aug-23 12:46 39.577447 -104.848112 87 5816ft 0kts
26-Aug-23 12:47 39.577447 -104.848112 87 5816ft 0kts
26-Aug-23 12:48 39.577447 -104.848112 87 5816ft 0kts
26-Aug-23 12:49 39.577447 -104.848112 87 5816ft 0kts
26-Aug-23 12:50 39.577447 -104.848112 87 5816ft 0kts
26-Aug-23 12:51 39.577447 -104.848112 87 5816ft 0kts
26-Aug-23 12:52 39.577447 -104.848112 87 5816ft 0kts
26-Aug-23 12:53 39.577447 -104.848112 87 5816ft 0kts
26-Aug-23 12:54 39.577447 -104.848112 87 5816ft 0kts
26-Aug-23 12:55 39.577447 -104.848112 87 5816ft 0kts
26-Aug-23 12:56 39.577447 -104.848112 87 5816ft 0kts
26-Aug-23 12:57 39.577447 -104.848112 87 5816ft 0kts
26-Aug-23 12:58 39.577447 -104.848112 87 5816ft 0kts
26-Aug-23 12:59 39.577447 -104.848112 87 5816ft 0kts
26-Aug-23 13:00 39.577447 -104.848112 87 5816ft 0kts
26-Aug-23 13:01 39.577447 -104.848112 87 5816ft 0kts
26-Aug-23 13:02 39.577447 -104.848112 88 5816ft 0kts
26-Aug-23 13:03 39.578409 -104.849806 359 5811ft 16kts
26-Aug-23 13:04 39.583079 -104.850082 359 5799ft 14kts
26-Aug-23 13:05 39.584029 -104.850110 326 5799ft 0kts
26-Aug-23 13:06 39.584085 -104.850159 317 5799ft 2kts
26-Aug-23 13:07 39.584116 -104.850256 273 5799ft 0kts
26-Aug-23 13:08 39.584116 -104.850257 273 5799ft 0kts
26-Aug-23 13:09 39.575708 -104.851111 175 5857ft 77kts
26-Aug-23 13:10 39.554791 -104.857568 215 6445ft 90kts
26-Aug-23 13:11 39.537056 -104.882127 231 7228ft 96kts
26-Aug-23 13:12 39.525452 -104.913348 246 7940ft 97kts
26-Aug-23 13:13 39.514818 -104.945493 240 8708ft 97kts
26-Aug-23 13:14 39.503498 -104.977073 251 9425ft 97kts
26-Aug-23 13:15 39.496612 -105.019659 264 9583ft 137kts
26-Aug-23 13:16 39.498920 -105.069946 301 9550ft 146kts
26-Aug-23 13:17 39.526031 -105.106970 315 9764ft 120kts
26-Aug-23 13:18 39.538939 -105.138194 286 10622ft 86kts
26-Aug-23 13:19 39.536916 -105.167447 260 11045ft 92kts
26-Aug-23 13:20 39.541610 -105.202132 299 11504ft 98kts
26-Aug-23 13:21 39.559616 -105.227590 301 12010ft 97kts
26-Aug-23 13:22 39.571380 -105.258148 270 12427ft 97kts
26-Aug-23 13:23 39.566033 -105.292609 270 12873ft 98kts
26-Aug-23 13:24 39.565443 -105.327982 265 13299ft 99kts
26-Aug-23 13:25 39.564506 -105.363113 269 13643ft 96kts
26-Aug-23 13:26 39.562631 -105.397205 268 13967ft 88kts
26-Aug-23 13:27 39.561426 -105.428173 269 14194ft 81kts
26-Aug-23 13:28 39.560257 -105.455918 271 14325ft 79kts
26-Aug-23 13:29 39.559695 -105.485907 269 14402ft 96kts
26-Aug-23 13:30 39.557222 -105.525399 268 14397ft 119kts
26-Aug-23 13:31 39.555219 -105.568266 267 14384ft 121kts
26-Aug-23 13:32 39.554203 -105.610761 269 14381ft 115kts
26-Aug-23 13:33 39.547361 -105.651100 246 14381ft 116kts
26-Aug-23 13:34 39.530898 -105.692616 254 14384ft 138kts
26-Aug-23 13:35 39.519500 -105.739039 256 14375ft 136kts
26-Aug-23 13:36 39.506055 -105.784498 243 14365ft 134kts
26-Aug-23 13:37 39.491639 -105.827491 260 14354ft 128kts
26-Aug-23 13:38 39.482210 -105.871268 256 14349ft 126kts
26-Aug-23 13:39 39.469119 -105.913263 251 14351ft 127kts
26-Aug-23 13:40 39.457381 -105.956759 257 14345ft 132kts
26-Aug-23 13:41 39.444949 -106.003428 255 14375ft 138kts
26-Aug-23 13:42 39.432864 -106.050323 256 14423ft 137kts
26-Aug-23 13:43 39.419860 -106.095692 251 14459ft 134kts
26-Aug-23 13:44 39.407514 -106.141011 259 14507ft 137kts
26-Aug-23 13:45 39.394656 -106.187934 251 14551ft 138kts
26-Aug-23 13:46 39.381451 -106.234904 251 14593ft 138kts
26-Aug-23 13:47 39.369520 -106.281826 251 14624ft 139kts
26-Aug-23 13:48 39.356069 -106.328115 255 14639ft 136kts
26-Aug-23 13:49 39.342183 -106.373275 245 14647ft 137kts
26-Aug-23 13:50 39.332425 -106.421093 257 14637ft 138kts
26-Aug-23 13:51 39.316831 -106.466956 247 14621ft 140kts
26-Aug-23 13:52 39.304380 -106.513729 248 14576ft 137kts
26-Aug-23 13:53 39.290342 -106.559383 259 14533ft 137kts
26-Aug-23 13:54 39.279776 -106.606926 250 14424ft 139kts
26-Aug-23 13:55 39.265250 -106.653383 255 14466ft 140kts
26-Aug-23 13:56 39.250340 -106.699863 247 14504ft 141kts
26-Aug-23 13:57 39.235036 -106.746024 252 14548ft 139kts
26-Aug-23 13:58 39.221565 -106.791944 237 14547ft 134kts
26-Aug-23 13:59 39.187776 -106.809283 181 14548ft 139kts
26-Aug-23 14:00 39.150039 -106.810447 217 14544ft 135kts
26-Aug-23 14:01 39.117829 -106.834403 214 14542ft 138kts
26-Aug-23 14:02 39.085629 -106.862438 218 14495ft 143kts
26-Aug-23 14:03 39.056546 -106.896913 224 14464ft 141kts
26-Aug-23 14:04 39.030544 -106.934711 238 14435ft 143kts
26-Aug-23 14:05 39.008679 -106.977542 234 14409ft 142kts
26-Aug-23 14:06 38.985803 -107.020034 237 14373ft 143kts
26-Aug-23 14:07 38.962638 -107.061391 230 14345ft 145kts
26-Aug-23 14:08 38.943834 -107.106461 256 14312ft 145kts
26-Aug-23 14:09 38.936227 -107.157577 262 14283ft 146kts
26-Aug-23 14:10 38.919853 -107.205656 238 14280ft 151kts
26-Aug-23 14:11 38.896898 -107.249622 234 14273ft 146kts
26-Aug-23 14:12 38.874975 -107.293014 237 14275ft 144kts
26-Aug-23 14:13 38.852414 -107.335443 238 14266ft 142kts
26-Aug-23 14:14 38.830452 -107.377164 236 14261ft 140kts
26-Aug-23 14:15 38.807715 -107.420381 236 14266ft 147kts
26-Aug-23 14:16 38.784900 -107.462911 233 14257ft 143kts
26-Aug-23 14:17 38.762824 -107.505687 235 14256ft 148kts
26-Aug-23 14:18 38.732511 -107.539219 212 14253ft 144kts
26-Aug-23 14:19 38.700212 -107.567708 231 14266ft 137kts
26-Aug-23 14:20 38.677760 -107.605694 236 14287ft 130kts
26-Aug-23 14:21 38.656680 -107.642549 234 14304ft 127kts
26-Aug-23 14:22 38.636708 -107.678889 237 14336ft 124kts
26-Aug-23 14:23 38.615664 -107.713959 233 14361ft 124kts
26-Aug-23 14:24 38.594757 -107.749065 235 14391ft 125kts
26-Aug-23 14:25 38.574150 -107.784892 236 14414ft 126kts
26-Aug-23 14:26 38.552913 -107.820779 236 14436ft 127kts
26-Aug-23 14:27 38.530199 -107.856217 228 14422ft 130kts
26-Aug-23 14:28 38.504329 -107.888439 228 14422ft 129kts
26-Aug-23 14:29 38.478382 -107.919992 215 14418ft 130kts
26-Aug-23 14:30 38.449396 -107.947743 215 14419ft 131kts
26-Aug-23 14:31 38.418992 -107.973286 213 14405ft 131kts
26-Aug-23 14:32 38.386851 -107.995532 210 14382ft 131kts
26-Aug-23 14:33 38.354821 -108.018543 212 14264ft 134kts
26-Aug-23 14:35 38.323063 -108.042263 212 14123ft 129kts
26-Aug-23 14:36 38.292807 -108.066776 213 13709ft 131kts
26-Aug-23 14:37 38.261794 -108.089571 216 13362ft 128kts
26-Aug-23 14:38 38.230972 -108.112856 215 13166ft 127kts
26-Aug-23 14:39 38.200773 -108.136608 213 12898ft 127kts
26-Aug-23 14:40 38.170204 -108.159535 208 12617ft 127kts
26-Aug-23 14:41 38.139985 -108.182359 212 12347ft 127kts
26-Aug-23 14:42 38.109805 -108.205316 210 12085ft 126kts
26-Aug-23 14:43 38.079864 -108.228518 213 11812ft 126kts
26-Aug-23 14:44 38.049929 -108.250852 208 11670ft 121kts
26-Aug-23 14:45 38.022496 -108.274126 214 11658ft 117kts
26-Aug-23 14:46 37.993846 -108.273271 140 11672ft 123kts
26-Aug-23 14:47 37.990935 -108.234848 66 11727ft 126kts
26-Aug-23 14:48 38.000058 -108.192126 88 11785ft 125kts
26-Aug-23 14:49 37.993932 -108.147078 101 11545ft 129kts
26-Aug-23 14:50 37.987048 -108.103014 102 11365ft 119kts
26-Aug-23 14:51 37.981565 -108.068937 102 11359ft 90kts
26-Aug-23 14:52 37.976021 -108.035666 95 11411ft 104kts
26-Aug-23 14:53 37.972524 -108.000091 103 10970ft 98kts
26-Aug-23 14:54 37.965963 -107.965449 105 10405ft 97kts
26-Aug-23 14:55 37.959691 -107.936030 105 9504ft 78kts
26-Aug-23 14:56 37.954289 -107.910977 104 9015ft 54kts
26-Aug-23 14:57 37.952802 -107.901288 16 9046ft 0kts
26-Aug-23 14:57 37.953794 -107.901688 15 9052ft 8kts
26-Aug-23 14:58 37.953925 -107.901641 15 9052ft 0kts
26-Aug-23 15:00 37.953925 -107.901641 15 9052ft 0kts
26-Aug-23 15:01 37.953925 -107.901641 15 9052ft 0kts
26-Aug-23 15:02 37.953925 -107.901641 15 9052ft 0kts

Navigation Log

Ident Type
Flight plan parsing failed, navigation log unavailable